createdAt,value
2022-10-22T00:02:31.858Z,100224.47
2022-10-22T00:05:04.448Z,100221.73
2022-10-22T00:07:37.319Z,100225.61
2022-10-22T00:10:12.229Z,100224.81
2022-10-22T00:12:44.508Z,100231.06
2022-10-22T00:15:17.705Z,100226.27
2022-10-22T00:17:50.051Z,100213.45
2022-10-22T00:20:22.959Z,100204.48
2022-10-22T00:22:56.458Z,100200.49
2022-10-22T00:25:28.810Z,100197.39
2022-10-22T00:28:00.828Z,100195.07
2022-10-22T00:30:33.036Z,100190.87
2022-10-22T00:33:05.140Z,100191.50
2022-10-22T00:35:37.107Z,100190.70
2022-10-22T00:38:09.535Z,100192.87
2022-10-22T00:40:41.610Z,100197.40
2022-10-22T00:43:17.434Z,100197.52
2022-10-22T00:45:49.948Z,100203.05
2022-10-22T00:48:29.286Z,100199.74
2022-10-22T00:51:04.286Z,100197.23
2022-10-22T00:53:38.892Z,100200.48
2022-10-22T00:56:16.974Z,100202.09
2022-10-22T00:58:54.007Z,100192.71
2022-10-22T01:01:29.257Z,100183.09
2022-10-22T01:04:01.512Z,100179.99
2022-10-22T01:06:35.628Z,100175.06
2022-10-22T01:09:20.386Z,100174.91
2022-10-22T01:12:00.613Z,100146.77
2022-10-22T01:14:37.454Z,100159.85
2022-10-22T01:17:15.255Z,100164.39
2022-10-22T01:20:04.136Z,100165.72
2022-10-22T01:22:40.530Z,100168.28
2022-10-22T01:25:19.638Z,100169.23
2022-10-22T01:28:02.966Z,100161.31
2022-10-22T01:30:37.542Z,100161.45
2022-10-22T01:33:14.285Z,100168.38
2022-10-22T01:35:48.068Z,100169.15
2022-10-22T01:38:24.725Z,100165.48
2022-10-22T01:40:58.085Z,100165.33
2022-10-22T01:43:30.203Z,100167.30
2022-10-22T01:46:05.526Z,100163.94
2022-10-22T01:48:48.574Z,100155.20
2022-10-22T01:51:36.387Z,100145.95
2022-10-22T01:54:15.713Z,100149.46
2022-10-22T01:56:58.165Z,100162.95
2022-10-22T01:59:43.454Z,100178.75
2022-10-22T02:02:24.764Z,100185.56
2022-10-22T02:05:01.605Z,100186.36
2022-10-22T02:07:38.283Z,100182.45
2022-10-22T02:10:14.069Z,100180.13
2022-10-22T02:12:50.227Z,100171.92
2022-10-22T02:15:29.635Z,100159.41
2022-10-22T02:18:04.335Z,100154.63
2022-10-22T02:20:40.762Z,100152.55
2022-10-22T02:23:13.627Z,100150.64
2022-10-22T02:25:50.654Z,100160.55
2022-10-22T02:28:30.635Z,100168.83
2022-10-22T02:31:08.632Z,100158.69
2022-10-22T02:33:46.802Z,100155.34
2022-10-22T02:36:20.186Z,100155.73
2022-10-22T02:38:53.834Z,100157.74
2022-10-22T02:41:26.601Z,100155.81
2022-10-22T02:43:59.053Z,100175.87
2022-10-22T02:46:31.621Z,100182.59
2022-10-22T02:49:04.090Z,100190.59
2022-10-22T02:51:36.255Z,100198.59
2022-10-22T02:54:09.448Z,100194.02
2022-10-22T02:56:41.461Z,100193.19
2022-10-22T02:59:13.516Z,100196.48
2022-10-22T03:01:45.489Z,100195.25
2022-10-22T03:04:17.614Z,100190.83
2022-10-22T03:06:50.005Z,100184.58
2022-10-22T03:09:24.879Z,100177.79
2022-10-22T03:11:57.003Z,100173.24
2022-10-22T03:14:29.286Z,100168.30
2022-10-22T03:17:01.344Z,100156.33
2022-10-22T03:19:34.421Z,100158.15
2022-10-22T03:22:11.327Z,100161.91
2022-10-22T03:24:47.005Z,100179.48
2022-10-22T03:27:22.449Z,100189.52
2022-10-22T03:29:55.296Z,100185.27
2022-10-22T03:32:27.691Z,100182.64
2022-10-22T03:37:38.126Z,100195.09
2022-10-22T03:40:12.940Z,100199.38
2022-10-22T03:42:45.534Z,100202.10
2022-10-22T03:45:18.176Z,100200.02
2022-10-22T03:47:50.311Z,100196.61
2022-10-22T03:50:24.981Z,100191.51
2022-10-22T03:52:58.228Z,100184.65
2022-10-22T03:55:30.526Z,100187.85
2022-10-22T03:58:02.739Z,100186.09
2022-10-22T04:00:35.690Z,100189.35
2022-10-22T04:03:08.396Z,100191.68
2022-10-22T04:05:40.746Z,100198.19
2022-10-22T04:08:13.020Z,100201.77
2022-10-22T04:10:51.665Z,100200.98
2022-10-22T04:13:24.386Z,100193.74
2022-10-22T04:15:57.025Z,100190.46
2022-10-22T04:18:29.426Z,100186.02
2022-10-22T04:21:01.513Z,100180.27
2022-10-22T04:23:33.815Z,100174.36
2022-10-22T04:26:09.265Z,100179.61
2022-10-22T04:28:41.814Z,100188.05
2022-10-22T04:31:15.747Z,100179.27
2022-10-22T04:33:49.081Z,100161.23
2022-10-22T04:36:24.307Z,100173.38
2022-10-22T04:38:58.624Z,100179.86
2022-10-22T04:41:33.575Z,100182.75
2022-10-22T04:44:04.597Z,100195.20
2022-10-22T04:46:43.790Z,100201.52
2022-10-22T04:49:16.763Z,100207.29
2022-10-22T04:51:51.004Z,100204.34
2022-10-22T04:54:23.670Z,100194.11
2022-10-22T04:56:56.049Z,100198.98
2022-10-22T04:59:28.519Z,100192.32
2022-10-22T05:02:00.527Z,100204.27
2022-10-22T05:04:32.583Z,100198.52
2022-10-22T05:07:04.760Z,100196.38
2022-10-22T05:09:37.105Z,100198.63
2022-10-22T05:12:10.184Z,100196.87
2022-10-22T05:14:44.673Z,100186.61
2022-10-22T05:17:19.307Z,100202.07
2022-10-22T05:19:54.413Z,100207.57
2022-10-22T05:22:27.116Z,100204.00
2022-10-22T05:25:01.840Z,100206.38
2022-10-22T05:27:34.416Z,100212.64
2022-10-22T05:30:07.884Z,100217.95
2022-10-22T05:32:40.071Z,100223.29
2022-10-22T05:35:12.335Z,100224.13
2022-10-22T05:37:44.453Z,100218.48
2022-10-22T05:40:26.373Z,100219.70
2022-10-22T05:43:03.055Z,100220.64
2022-10-22T05:45:39.341Z,100226.98
2022-10-22T05:48:12.176Z,100221.10
2022-10-22T05:50:46.276Z,100228.73
2022-10-22T05:53:20.069Z,100225.95
2022-10-22T05:55:52.160Z,100225.65
2022-10-22T05:58:24.320Z,100224.05
2022-10-22T06:00:56.651Z,100227.79
2022-10-22T06:03:29.628Z,100229.39
2022-10-22T06:06:03.669Z,100228.69
2022-10-22T06:08:36.299Z,100222.31
2022-10-22T06:11:08.419Z,100233.96
2022-10-22T06:13:40.814Z,100238.52
2022-10-22T06:16:12.780Z,100239.88
2022-10-22T06:18:45.465Z,100243.00
2022-10-22T06:21:19.219Z,100246.69
2022-10-22T06:23:51.516Z,100253.00
2022-10-22T06:26:23.486Z,100257.23
2022-10-22T06:28:55.953Z,100258.35
2022-10-22T06:31:29.519Z,100265.16
2022-10-22T06:34:01.558Z,100267.45
2022-10-22T06:36:33.708Z,100255.85
2022-10-22T06:39:06.746Z,100265.55
2022-10-22T06:41:38.924Z,100266.04
2022-10-22T06:44:16.457Z,100264.78
2022-10-22T06:46:50.063Z,100260.16
2022-10-22T06:49:22.983Z,100259.94
2022-10-22T06:51:56.503Z,100260.73
2022-10-22T06:54:28.749Z,100258.83
2022-10-22T06:57:00.745Z,100261.85
2022-10-22T06:59:32.854Z,100266.40
2022-10-22T07:02:05.143Z,100279.20
2022-10-22T07:04:37.328Z,100284.09
2022-10-22T07:07:09.332Z,100290.27
2022-10-22T07:09:41.327Z,100293.13
2022-10-22T07:12:13.825Z,100296.69
2022-10-22T07:14:45.882Z,100299.34
2022-10-22T07:17:17.944Z,100295.81
2022-10-22T07:19:51.322Z,100296.80
2022-10-22T07:22:24.655Z,100306.27
2022-10-22T07:24:57.366Z,100302.81
2022-10-22T07:27:29.297Z,100294.38
2022-10-22T07:30:01.953Z,100307.13
2022-10-22T07:32:34.317Z,100310.23
2022-10-22T07:35:07.334Z,100308.04
2022-10-22T07:37:39.843Z,100303.59
2022-10-22T07:40:13.216Z,100291.98
2022-10-22T07:42:45.500Z,100307.50
2022-10-22T07:45:19.128Z,100302.98
2022-10-22T07:47:51.809Z,100302.43
2022-10-22T07:50:25.531Z,100297.83
2022-10-22T07:52:58.377Z,100300.60
2022-10-22T07:55:31.749Z,100299.50
2022-10-22T07:58:03.753Z,100298.87
2022-10-22T08:00:37.774Z,100297.61
2022-10-22T08:03:11.883Z,100300.34
2022-10-22T08:05:44.815Z,100305.42
2022-10-22T08:08:17.864Z,100310.08
2022-10-22T08:10:53.041Z,100319.27
2022-10-22T08:13:26.337Z,100318.64
2022-10-22T08:15:58.340Z,100312.02
2022-10-22T08:18:31.163Z,100314.27
2022-10-22T08:21:03.792Z,100313.33
2022-10-22T08:23:36.037Z,100319.07
2022-10-22T08:26:08.907Z,100318.98
2022-10-22T08:28:41.083Z,100320.34
2022-10-22T08:31:13.831Z,100330.82
2022-10-22T08:33:46.053Z,100325.02
2022-10-22T08:36:18.117Z,100323.27
2022-10-22T08:38:50.539Z,100324.17
2022-10-22T08:41:25.172Z,100323.45
2022-10-22T08:44:22.113Z,100322.42
2022-10-22T08:47:11.915Z,100323.95
2022-10-22T08:49:45.791Z,100310.05
2022-10-22T08:52:21.321Z,100302.93
2022-10-22T08:54:58.197Z,100323.41
2022-10-22T08:57:45.641Z,100326.67
2022-10-22T09:00:25.848Z,100326.85
2022-10-22T09:03:13.098Z,100320.94
2022-10-22T09:05:57.216Z,100322.30
2022-10-22T09:08:30.802Z,100324.61
2022-10-22T09:11:08.512Z,100326.85
2022-10-22T09:13:41.742Z,100325.58
2022-10-22T09:16:19.328Z,100327.19
2022-10-22T09:19:04.343Z,100329.50
2022-10-22T09:21:39.975Z,100324.77
2022-10-22T09:24:18.563Z,100321.41
2022-10-22T09:26:50.795Z,100324.48
2022-10-22T09:29:32.131Z,100330.25
2022-10-22T09:32:05.071Z,100332.84
2022-10-22T09:34:38.311Z,100336.66
2022-10-22T09:37:12.062Z,100344.83
2022-10-22T09:39:48.929Z,100338.27
2022-10-22T09:42:22.058Z,100356.18
2022-10-22T09:44:56.628Z,100350.01
2022-10-22T09:47:43.414Z,100360.45
2022-10-22T09:50:38.603Z,100366.52
2022-10-22T09:53:18.651Z,100373.93
2022-10-22T09:58:44.944Z,100379.67
2022-10-22T10:01:23.910Z,100382.87
2022-10-22T10:04:06.949Z,100383.69
2022-10-22T10:06:44.618Z,100392.56
2022-10-22T10:09:21.444Z,100391.67
2022-10-22T10:12:01.036Z,100388.25
2022-10-22T10:14:41.902Z,100392.95
2022-10-22T10:17:25.770Z,100395.52
2022-10-22T10:20:11.623Z,100394.31
2022-10-22T10:22:56.104Z,100393.04
2022-10-22T10:25:42.578Z,100397.60
2022-10-22T10:28:36.796Z,100398.77
2022-10-22T10:31:28.449Z,100397.67
2022-10-22T10:34:12.799Z,100395.66
2022-10-22T10:36:57.227Z,100394.64
2022-10-22T10:39:38.610Z,100388.14
2022-10-22T10:42:20.806Z,100389.27
2022-10-22T10:45:04.665Z,100387.45
2022-10-22T10:47:58.123Z,100385.05
2022-10-22T10:50:42.234Z,100379.39
2022-10-22T10:53:24.236Z,100381.95
2022-10-22T10:56:03.774Z,100375.63
2022-10-22T10:58:47.048Z,100375.26
2022-10-22T11:01:29.232Z,100372.30
2022-10-22T11:04:30.047Z,100373.33
2022-10-22T11:07:11.290Z,100373.48
2022-10-22T11:09:59.668Z,100377.49
2022-10-22T11:12:35.807Z,100372.58
2022-10-22T11:15:17.909Z,100367.29
2022-10-22T11:17:58.127Z,100369.61
2022-10-22T11:20:43.330Z,100367.14
2022-10-22T11:23:25.132Z,100364.33
2022-10-22T11:25:58.063Z,100356.64
2022-10-22T11:28:39.268Z,100354.42
2022-10-22T11:31:17.666Z,100362.67
2022-10-22T11:34:04.834Z,100355.38
2022-10-22T11:36:52.500Z,100354.17
2022-10-22T11:39:40.544Z,100358.90
2022-10-22T11:42:23.032Z,100358.42
2022-10-22T11:45:06.780Z,100364.91
2022-10-22T11:47:58.561Z,100366.11
2022-10-22T11:50:49.042Z,100367.70
2022-10-22T11:53:33.145Z,100369.20
2022-10-22T11:56:26.973Z,100369.06
2022-10-22T11:59:01.544Z,100365.38
2022-10-22T12:01:44.540Z,100369.99
2022-10-22T12:04:23.517Z,100366.40
2022-10-22T12:07:02.250Z,100359.30
2022-10-22T12:09:41.522Z,100360.90
2022-10-22T12:12:30.629Z,100358.27
2022-10-22T12:15:03.997Z,100357.05
2022-10-22T12:17:36.401Z,100359.92
2022-10-22T12:20:15.342Z,100358.08
2022-10-22T12:22:47.520Z,100353.66
2022-10-22T12:25:25.706Z,100356.72
2022-10-22T12:28:02.251Z,100350.81
2022-10-22T12:30:35.736Z,100334.48
2022-10-22T12:33:19.196Z,100350.02
2022-10-22T12:35:57.562Z,100352.61
2022-10-22T12:38:31.205Z,100353.05
2022-10-22T12:41:03.489Z,100350.70
2022-10-22T12:43:35.740Z,100336.23
2022-10-22T12:46:15.199Z,100345.13
2022-10-22T12:48:48.129Z,100348.34
2022-10-22T12:51:21.812Z,100347.61
2022-10-22T12:53:56.357Z,100343.79
2022-10-22T12:56:30.556Z,100343.77
2022-10-22T12:59:06.453Z,100352.98
2022-10-22T13:01:41.456Z,100349.67
2022-10-22T13:04:20.888Z,100353.45
2022-10-22T13:07:05.809Z,100353.21
2022-10-22T13:09:44.185Z,100353.21
2022-10-22T13:12:18.641Z,100354.19
2022-10-22T13:14:50.675Z,100355.86
2022-10-22T13:17:39.535Z,100356.17
2022-10-22T13:20:21.912Z,100359.73
2022-10-22T13:23:00.495Z,100360.40
2022-10-22T13:25:35.693Z,100360.66
2022-10-22T13:28:22.497Z,100364.02
2022-10-22T13:30:59.658Z,100370.10
2022-10-22T13:33:37.146Z,100369.69
2022-10-22T13:36:11.213Z,100372.25
2022-10-22T13:38:44.907Z,100370.98
2022-10-22T13:41:25.215Z,100371.21
2022-10-22T13:43:58.843Z,100372.73
2022-10-22T13:46:31.465Z,100377.14
2022-10-22T13:49:05.678Z,100379.98
2022-10-22T13:51:40.361Z,100383.88
2022-10-22T13:54:17.590Z,100382.30
2022-10-22T13:56:50.035Z,100385.23
2022-10-22T13:59:23.860Z,100385.29
2022-10-22T14:01:57.256Z,100385.58
2022-10-22T14:04:29.262Z,100381.92
2022-10-22T14:07:03.828Z,100380.89
2022-10-22T14:09:36.548Z,100379.70
2022-10-22T14:12:15.606Z,100383.05
2022-10-22T14:14:48.266Z,100383.13
2022-10-22T14:17:20.489Z,100386.41
2022-10-22T14:19:52.653Z,100390.16
2022-10-22T14:22:28.121Z,100390.73
2022-10-22T14:25:01.236Z,100391.14
2022-10-22T14:27:33.338Z,100390.98
2022-10-22T14:30:05.787Z,100396.98
2022-10-22T14:32:38.530Z,100395.08
2022-10-22T14:35:14.773Z,100397.23
2022-10-22T14:37:47.176Z,100405.38
2022-10-22T14:40:21.654Z,100400.27
2022-10-22T14:42:53.642Z,100401.95
2022-10-22T14:45:28.441Z,100401.55
2022-10-22T14:48:00.447Z,100404.11
2022-10-22T14:50:32.938Z,100415.87
2022-10-22T14:53:05.461Z,100407.87
2022-10-22T14:55:37.655Z,100410.90
2022-10-22T14:58:09.831Z,100412.27
2022-10-22T15:00:43.182Z,100415.95
2022-10-22T15:03:15.413Z,100415.55
2022-10-22T15:05:47.611Z,100417.55
2022-10-22T15:08:19.887Z,100422.52
2022-10-22T15:11:02.436Z,100423.64
2022-10-22T15:13:35.759Z,100417.73
2022-10-22T15:16:11.602Z,100418.52
2022-10-22T15:18:43.977Z,100417.58
2022-10-22T15:21:19.302Z,100424.45
2022-10-22T15:23:51.794Z,100423.09
2022-10-22T15:26:23.794Z,100423.17
2022-10-22T15:28:56.196Z,100423.96
2022-10-22T15:31:45.580Z,100423.33
2022-10-22T15:34:21.395Z,100429.98
2022-10-22T15:36:55.325Z,100430.04
2022-10-22T15:39:28.193Z,100437.19
2022-10-22T15:42:02.154Z,100440.21
2022-10-22T15:44:36.063Z,100443.50
2022-10-22T15:47:08.882Z,100439.89
2022-10-22T15:49:42.874Z,100442.38
2022-10-22T15:52:15.892Z,100441.97
2022-10-22T15:54:48.663Z,100444.86
2022-10-22T15:57:23.051Z,100446.30
2022-10-22T15:59:55.102Z,100453.10
2022-10-22T16:02:27.131Z,100452.20
2022-10-22T16:04:59.940Z,100455.70
2022-10-22T16:07:32.426Z,100462.04
2022-10-22T16:10:05.333Z,100467.96
2022-10-22T16:12:37.732Z,100474.27
2022-10-22T16:15:12.245Z,100474.29
2022-10-22T16:17:44.315Z,100479.64
2022-10-22T16:20:16.482Z,100478.05
2022-10-22T16:22:52.444Z,100479.44
2022-10-22T16:25:24.736Z,100477.52
2022-10-22T16:27:56.955Z,100480.88
2022-10-22T16:30:28.981Z,100479.76
2022-10-22T16:33:03.376Z,100483.92
2022-10-22T16:35:35.951Z,100486.49
2022-10-22T16:38:08.217Z,100489.05
2022-10-22T16:40:42.267Z,100486.10
2022-10-22T16:43:15.961Z,100490.17
2022-10-22T16:45:51.506Z,100507.56
2022-10-22T16:48:23.563Z,100510.61
2022-10-22T16:50:56.003Z,100510.85
2022-10-22T16:53:28.737Z,100516.12
2022-10-22T16:56:00.784Z,100520.29
2022-10-22T16:58:33.305Z,100522.60
2022-10-22T17:01:09.062Z,100525.76
2022-10-22T17:03:41.706Z,100527.44
2022-10-22T17:06:14.333Z,100531.74
2022-10-22T17:08:46.607Z,100533.02
2022-10-22T17:11:21.937Z,100533.02
2022-10-22T17:13:55.925Z,100536.14
2022-10-22T17:16:28.302Z,100539.07
2022-10-22T17:19:01.106Z,100535.09
2022-10-22T17:21:34.112Z,100547.31
2022-10-22T17:24:06.789Z,100550.05
2022-10-22T17:26:38.880Z,100548.83
2022-10-22T17:29:11.146Z,100553.48
2022-10-22T17:31:44.027Z,100553.88
2022-10-22T17:34:18.777Z,100552.84
2022-10-22T17:36:50.763Z,100555.80
2022-10-22T17:39:22.941Z,100532.24
2022-10-22T17:41:55.780Z,100555.88
2022-10-22T17:44:28.476Z,100557.06
2022-10-22T17:47:01.907Z,100561.63
2022-10-22T17:49:33.855Z,100561.79
2022-10-22T17:52:05.989Z,100564.84
2022-10-22T17:54:38.699Z,100568.08
2022-10-22T17:57:11.770Z,100571.04
2022-10-22T17:59:43.946Z,100569.02
2022-10-22T18:02:19.225Z,100575.88
2022-10-22T18:04:53.833Z,100570.84
2022-10-22T18:07:26.358Z,100573.73
2022-10-22T18:09:58.401Z,100574.59
2022-10-22T18:12:30.679Z,100579.06
2022-10-22T18:15:04.063Z,100584.99
2022-10-22T18:17:39.794Z,100586.47
2022-10-22T18:20:13.772Z,100591.19
2022-10-22T18:22:46.230Z,100598.90
2022-10-22T18:25:19.246Z,100598.98
2022-10-22T18:27:51.641Z,100601.66
2022-10-22T18:30:24.925Z,100599.03
2022-10-22T18:32:57.311Z,100598.54
2022-10-22T18:35:32.649Z,100598.52
2022-10-22T18:38:05.499Z,100601.89
2022-10-22T18:40:37.540Z,100601.74
2022-10-22T18:43:10.637Z,100602.13
2022-10-22T18:45:45.758Z,100607.02
2022-10-22T18:48:20.309Z,100604.48
2022-10-22T18:51:02.165Z,100605.37
2022-10-22T18:53:34.784Z,100591.87
2022-10-22T18:56:09.495Z,100610.02
2022-10-22T18:58:42.917Z,100615.98
2022-10-22T19:01:16.917Z,100619.16
2022-10-22T19:03:49.527Z,100620.53
2022-10-22T19:06:31.210Z,100624.73
2022-10-22T19:09:05.568Z,100627.46
2022-10-22T19:11:38.302Z,100630.77
2022-10-22T19:14:10.740Z,100626.04
2022-10-22T19:16:43.130Z,100627.48
2022-10-22T19:19:19.116Z,100618.23
2022-10-22T19:21:51.919Z,100632.02
2022-10-22T19:24:24.145Z,100631.38
2022-10-22T19:26:56.569Z,100635.16
2022-10-22T19:29:28.595Z,100639.71
2022-10-22T19:32:01.026Z,100644.84
2022-10-22T19:34:33.443Z,100649.69
2022-10-22T19:37:05.622Z,100654.23
2022-10-22T19:39:38.797Z,100654.54
2022-10-22T19:42:10.774Z,100657.06
2022-10-22T19:44:44.113Z,100659.55
2022-10-22T19:47:16.581Z,100663.71
2022-10-22T19:49:48.725Z,100664.10
2022-10-22T19:52:20.766Z,100668.97
2022-10-22T19:54:52.852Z,100668.09
2022-10-22T19:57:25.429Z,100669.70
2022-10-22T19:59:57.431Z,100678.00
2022-10-22T20:02:30.019Z,100678.62
2022-10-22T20:05:03.199Z,100682.02
2022-10-22T20:07:35.158Z,100684.44
2022-10-22T20:10:18.049Z,100687.52
2022-10-22T20:12:54.687Z,100687.80
2022-10-22T20:15:27.334Z,100695.95
2022-10-22T20:17:59.787Z,100694.69
2022-10-22T20:20:32.394Z,100698.97
2022-10-22T20:23:04.500Z,100695.52
2022-10-22T20:25:36.876Z,100696.95
2022-10-22T20:28:10.698Z,100696.39
2022-10-22T20:30:45.190Z,100699.33
2022-10-22T20:33:20.236Z,100699.13
2022-10-22T20:36:02.508Z,100696.96
2022-10-22T20:41:15.832Z,100696.69
2022-10-22T20:43:48.695Z,100695.31
2022-10-22T20:46:23.579Z,100690.73
2022-10-22T20:48:58.285Z,100693.20
2022-10-22T20:51:30.487Z,100695.13
2022-10-22T20:54:02.969Z,100697.45
2022-10-22T20:56:36.205Z,100699.69
2022-10-22T20:59:11.151Z,100696.34
2022-10-22T21:01:46.014Z,100698.19
2022-10-22T21:04:19.585Z,100687.61
2022-10-22T21:06:52.364Z,100699.96
2022-10-22T21:09:24.984Z,100700.61
2022-10-22T21:11:58.358Z,100702.45
2022-10-22T21:14:31.061Z,100703.73
2022-10-22T21:17:05.064Z,100705.54
2022-10-22T21:19:37.491Z,100711.05
2022-10-22T21:22:09.726Z,100709.90
2022-10-22T21:24:42.324Z,100714.44
2022-10-22T21:27:14.767Z,100712.73
2022-10-22T21:29:46.832Z,100714.48
2022-10-22T21:32:19.167Z,100708.94
2022-10-22T21:34:51.357Z,100711.89
2022-10-22T21:37:23.498Z,100712.68
2022-10-22T21:39:55.455Z,100709.12
2022-10-22T21:42:27.585Z,100707.52
2022-10-22T21:44:59.672Z,100709.99
2022-10-22T21:47:31.905Z,100713.89
2022-10-22T21:50:04.158Z,100720.84
2022-10-22T21:52:36.618Z,100721.32
2022-10-22T21:55:09.689Z,100720.11
2022-10-22T21:57:42.033Z,100720.85
2022-10-22T22:00:16.745Z,100725.34
2022-10-22T22:02:51.599Z,100726.16
2022-10-22T22:05:23.784Z,100729.30
2022-10-22T22:07:56.243Z,100729.06
2022-10-22T22:10:28.445Z,100731.19
2022-10-22T22:13:00.514Z,100734.35
2022-10-22T22:15:34.690Z,100736.46
2022-10-22T22:18:07.350Z,100735.98
2022-10-22T22:20:41.045Z,100736.15
2022-10-22T22:23:13.191Z,100724.05
2022-10-22T22:25:46.133Z,100735.58
2022-10-22T22:28:18.704Z,100736.69
2022-10-22T22:30:50.677Z,100742.02
2022-10-22T22:33:22.993Z,100742.33
2022-10-22T22:35:58.755Z,100743.30
2022-10-22T22:38:30.963Z,100732.23
2022-10-22T22:41:03.170Z,100745.02
2022-10-22T22:43:35.506Z,100742.14
2022-10-22T22:46:09.730Z,100743.95
2022-10-22T22:48:42.159Z,100741.63
2022-10-22T22:51:14.363Z,100744.64
2022-10-22T22:53:46.379Z,100742.02
2022-10-22T22:56:20.050Z,100742.84
2022-10-22T22:58:52.719Z,100744.63
2022-10-22T23:01:26.882Z,100743.71
2022-10-22T23:04:01.026Z,100740.52
2022-10-22T23:06:35.927Z,100749.61
2022-10-22T23:09:10.141Z,100750.77
2022-10-22T23:11:42.165Z,100753.16
2022-10-22T23:14:16.141Z,100758.19
2022-10-22T23:16:50.717Z,100757.05
2022-10-22T23:19:24.236Z,100762.38
2022-10-22T23:21:59.128Z,100762.40
2022-10-22T23:24:31.740Z,100762.75
2022-10-22T23:27:05.895Z,100761.56
2022-10-22T23:29:38.313Z,100747.70
2022-10-22T23:32:15.504Z,100756.89
2022-10-22T23:34:47.778Z,100756.06
2022-10-22T23:37:19.720Z,100752.98
2022-10-22T23:39:51.661Z,100753.26
2022-10-22T23:42:23.606Z,100747.03
2022-10-22T23:44:55.808Z,100746.27
2022-10-22T23:47:27.729Z,100745.71
2022-10-22T23:50:00.196Z,100750.27
2022-10-22T23:52:32.466Z,100747.05
2022-10-22T23:55:04.556Z,100746.66
2022-10-22T23:57:36.486Z,100743.95
